Time;durP1;ratioP1;P1;durP2;ratioP2;P2;SDS_P1;SDS_P2;PMS_P1;PMS_P2;Temp;Humidity;BMP_temperature;BMP_pressure;BME280_temperature;BME280_humidity;BME280_pressure;Samples;Min_cycle;Max_cycle;Signal;HPM_P1;HPM_P2
2022/02/01 05:16:34;;;;;;;16.20;3.13;;;;;;;3.04;67.50;99404.47;2617437;31;20486;-64
2022/02/01 05:19:05;;;;;;;13.60;3.03;;;;;;;3.06;67.37;99397.34;2617817;47;20034;-64
2022/02/01 05:21:37;;;;;;;16.35;2.97;;;;;;;3.04;67.42;99391.41;2618539;54;20031;-64
2022/02/01 05:24:09;;;;;;;8.85;2.95;;;;;;;3.01;67.56;99404.72;2618434;54;20034;-65
2022/02/01 05:26:39;;;;;;;14.20;3.03;;;;;;;2.96;67.77;99399.88;2618325;54;20038;-65
2022/02/01 05:29:09;;;;;;;10.73;3.05;;;;;;;2.95;67.88;99406.06;2618462;54;20071;-64
2022/02/01 05:31:41;;;;;;;13.45;3.20;;;;;;;2.99;67.82;99414.47;2618472;54;20047;-65
2022/02/01 05:34:10;;;;;;;13.95;3.28;;;;;;;3.00;68.38;99412.69;2618086;54;20042;-64
2022/02/01 05:36:40;;;;;;;15.00;2.85;;;;;;;3.08;67.97;99405.03;2618279;54;20026;-64
2022/02/01 05:39:16;;;;;;;11.20;2.70;;;;;;;3.10;67.88;99395.25;2618529;54;20093;-65
2022/02/01 05:41:47;;;;;;;6.85;2.13;;;;;;;3.13;67.76;99388.00;2618482;54;20030;-67
2022/02/01 05:44:16;;;;;;;10.70;1.85;;;;;;;3.09;67.78;99391.00;2618298;54;20026;-66
2022/02/01 05:46:49;;;;;;;5.65;2.13;;;;;;;3.02;68.13;99393.31;2621183;54;20071;-66
2022/02/01 05:49:19;;;;;;;12.13;2.38;;;;;;;3.05;67.79;99394.81;2627305;54;20054;-68
2022/02/01 05:51:50;;;;;;;9.75;2.45;;;;;;;2.98;67.88;99395.38;2623948;54;20038;-64
2022/02/01 05:54:21;;;;;;;7.05;2.05;;;;;;;2.96;68.19;99410.31;2620296;54;20114;-65
2022/02/01 05:56:50;;;;;;;10.15;3.08;;;;;;;2.95;68.64;99408.69;2622154;54;20033;-65
2022/02/01 05:59:20;;;;;;;8.45;1.67;;;;;;;2.91;68.76;99404.66;2624360;54;20037;-65
2022/02/01 06:01:53;;;;;;;8.90;2.20;;;;;;;2.92;68.49;99419.38;2623791;54;20034;-65
2022/02/01 06:04:22;;;;;;;10.43;2.10;;;;;;;2.96;68.53;99426.00;2623712;54;20093;-65
2022/02/01 06:06:52;;;;;;;7.97;2.25;;;;;;;2.91;68.83;99427.34;2622720;54;20574;-65
2022/02/01 06:09:22;;;;;;;6.38;2.00;;;;;;;2.92;68.92;99416.75;2621904;54;20038;-65
2022/02/01 06:11:51;;;;;;;7.50;2.00;;;;;;;2.92;68.58;99423.78;2620415;54;20037;-64
2022/02/01 06:14:21;;;;;;;10.02;1.83;;;;;;;2.94;68.74;99432.31;2622173;54;20031;-66
2022/02/01 06:16:53;;;;;;;9.35;2.15;;;;;;;2.95;68.93;99432.19;2622469;47;20602;-64
2022/02/01 06:19:23;;;;;;;10.75;2.63;;;;;;;2.90;69.17;99434.34;2623691;54;20034;-66
2022/02/01 06:21:52;;;;;;;15.93;2.80;;;;;;;2.88;69.05;99436.25;2623693;54;20037;-64
2022/02/01 06:24:22;;;;;;;12.27;2.53;;;;;;;2.94;69.67;99435.75;2623885;54;20066;-64
2022/02/01 06:26:52;;;;;;;8.23;2.63;;;;;;;2.90;69.68;99449.19;2623477;54;20026;-64
2022/02/01 06:29:21;;;;;;;10.93;2.97;;;;;;;2.87;69.24;99462.50;2623320;54;20027;-67
2022/02/01 06:31:54;;;;;;;13.20;2.88;;;;;;;2.91;69.72;99472.56;2623157;54;20033;-63
2022/02/01 06:34:24;;;;;;;15.80;3.40;;;;;;;2.86;69.57;99472.13;2620792;54;20030;-64
2022/02/01 06:36:53;;;;;;;8.25;2.95;;;;;;;2.86;69.71;99469.53;2622563;54;20034;-64
2022/02/01 06:39:23;;;;;;;16.30;3.83;;;;;;;2.86;70.05;99468.69;2622285;47;20600;-64
2022/02/01 06:41:53;;;;;;;14.73;3.28;;;;;;;2.91;70.17;99459.50;2622057;54;20038;-64
2022/02/01 06:44:22;;;;;;;10.15;3.13;;;;;;;2.88;69.92;99467.59;2622418;54;20031;-65
2022/02/01 06:46:55;;;;;;;9.80;2.80;;;;;;;2.95;69.76;99449.63;2622412;54;20086;-65
2022/02/01 06:49:25;;;;;;;12.88;2.90;;;;;;;2.93;69.96;99460.19;2622140;47;20570;-65
2022/02/01 06:51:54;;;;;;;15.20;4.03;;;;;;;2.94;69.65;99459.25;2622196;54;20035;-65
2022/02/01 06:54:24;;;;;;;8.63;2.60;;;;;;;2.87;70.21;99454.69;2622578;54;20034;-64
2022/02/01 06:56:54;;;;;;;8.52;2.53;;;;;;;2.89;70.34;99465.81;2622325;39;20463;-64
2022/02/01 06:59:27;;;;;;;15.83;3.50;;;;;;;2.91;70.46;99451.69;2618849;54;20053;-64
2022/02/01 07:01:59;;;;;;;14.23;3.22;;;;;;;2.93;70.35;99448.94;2618528;54;20574;-65
2022/02/01 07:04:29;;;;;;;12.30;3.15;;;;;;;2.87;70.74;99445.06;2618244;54;20101;-64
2022/02/01 07:06:58;;;;;;;15.75;3.33;;;;;;;2.94;70.65;99450.59;2617709;47;20022;-64
2022/02/01 07:09:32;;;;;;;15.57;2.95;;;;;;;2.93;70.35;99448.94;2617766;54;20549;-64
2022/02/01 07:12:01;;;;;;;11.95;3.05;;;;;;;2.89;70.76;99439.69;2618270;54;20063;-65
2022/02/01 07:14:31;;;;;;;14.38;3.15;;;;;;;2.90;70.59;99429.13;2617535;54;20027;-65
2022/02/01 07:17:03;;;;;;;8.80;2.88;;;;;;;3.00;70.73;99405.66;2617950;54;20075;-65
2022/02/01 07:19:33;;;;;;;12.02;3.35;;;;;;;2.98;70.58;99400.59;2618599;54;20084;-65
2022/02/01 07:22:03;;;;;;;8.52;2.53;;;;;;;3.01;70.63;99406.50;2618215;54;20030;-65
2022/02/01 07:24:37;;;;;;;13.88;3.47;;;;;;;3.00;71.08;99400.44;2618120;54;20031;-65
2022/02/01 07:27:11;;;;;;;12.98;3.25;;;;;;;3.04;70.70;99403.63;2617936;54;20033;-65
2022/02/01 07:29:41;;;;;;;;;;;;;;;3.04;70.74;99403.63;2618668;54;20026;-65
2022/02/01 07:32:13;;;;;;;12.93;3.17;;;;;;;2.99;70.56;99419.69;2618289;54;19994;-65
2022/02/01 07:34:43;;;;;;;12.75;3.10;;;;;;;3.01;70.85;99420.38;2618084;54;20031;-65
2022/02/01 07:37:13;;;;;;;11.57;2.92;;;;;;;3.02;70.97;99422.06;2617726;54;20046;-65
2022/02/01 07:39:42;;;;;;;9.98;2.67;;;;;;;3.02;71.09;99432.50;2617900;54;20065;-65
2022/02/01 07:42:12;;;;;;;11.65;3.28;;;;;;;3.09;70.91;99436.22;2618042;54;20159;-65
2022/02/01 07:44:42;;;;;;;12.40;3.60;;;;;;;3.10;70.48;99421.38;2617942;54;20057;-65
2022/02/01 07:47:20;;;;;;;15.50;4.07;;;;;;;3.11;70.51;99410.00;2617275;47;20074;-65
2022/02/01 07:49:50;;;;;;;12.38;3.60;;;;;;;3.16;70.55;99410.44;2618104;54;20030;-64
2022/02/01 07:52:20;;;;;;;11.57;3.53;;;;;;;3.19;70.17;99413.63;2617435;54;20022;-64
2022/02/01 07:54:50;;;;;;;16.52;4.38;;;;;;;3.28;70.46;99398.94;2618295;54;20034;-65
2022/02/01 07:57:20;;;;;;;15.05;3.55;;;;;;;3.32;69.85;99405.56;2619926;47;20029;-65
2022/02/01 07:59:50;;;;;;;11.43;3.53;;;;;;;3.37;69.67;99410.38;2620158;54;20038;-65
2022/02/01 08:02:24;;;;;;;13.77;3.83;;;;;;;3.36;69.80;99412.16;2618076;54;20035;-65
2022/02/01 08:05:14;;;;;;;;;;;;;;;3.30;70.21;99412.69;2618125;54;20027;-65
2022/02/01 08:07:44;;;;;;;13.50;4.65;;;;;;;3.27;69.87;99419.97;2617308;47;20567;-64
2022/02/01 08:10:16;;;;;;;12.38;3.53;;;;;;;3.32;70.26;99416.00;2618327;54;20034;-65
2022/02/01 08:18:50;;;;;;;15.43;6.30;;;;;;;3.38;69.61;99412.03;2617752;54;20038;-63
2022/02/01 08:21:44;;;;;;;16.75;6.35;;;;;;;3.53;69.98;99412.50;2618964;54;20038;-65
2022/02/01 08:24:14;;;;;;;17.75;5.15;;;;;;;3.52;69.02;99406.44;2618285;47;20122;-67
2022/02/01 08:26:44;;;;;;;18.42;4.88;;;;;;;3.48;68.96;99405.88;2618921;54;20030;-65
2022/02/01 08:29:15;;;;;;;17.13;4.30;;;;;;;3.49;69.05;99406.72;2618870;54;20089;-64
2022/02/01 08:31:48;;;;;;;14.55;4.43;;;;;;;3.48;68.98;99395.44;2618948;54;20558;-64
2022/02/01 08:34:21;;;;;;;17.40;5.80;;;;;;;3.58;68.99;99392.81;2618964;54;20570;-65
2022/02/01 08:36:51;;;;;;;15.43;4.72;;;;;;;3.65;69.00;99404.41;2618802;54;20030;-65
2022/02/01 08:39:20;;;;;;;16.88;4.93;;;;;;;3.64;68.35;99408.00;2618202;47;20035;-65
2022/02/01 08:41:50;;;;;;;15.10;4.43;;;;;;;3.60;68.04;99400.56;2618896;54;20066;-67
2022/02/01 08:44:25;;;;;;;15.95;4.10;;;;;;;3.56;67.74;99397.38;2618801;54;20039;-66
2022/02/01 08:46:55;;;;;;;13.55;4.22;;;;;;;3.56;67.85;99407.84;2618874;54;20038;-65
2022/02/01 08:49:27;;;;;;;15.80;5.10;;;;;;;3.60;67.32;99416.25;2619014;54;20045;-64
2022/02/01 08:52:03;;;;;;;13.38;3.60;;;;;;;3.60;67.08;99416.25;2621258;54;20045;-65
2022/02/01 08:54:34;;;;;;;13.35;4.13;;;;;;;3.61;67.04;99410.06;2620280;54;20034;-65
2022/02/01 08:59:48;;;;;;;12.05;3.05;;;;;;;3.64;65.61;99420.25;2620823;54;20027;-65
2022/02/01 09:02:21;;;;;;;12.32;2.63;;;;;;;3.77;65.50;99414.78;2620235;54;20053;-66
2022/02/01 09:04:53;;;;;;;11.15;3.22;;;;;;;3.82;65.16;99408.16;2621490;54;20034;-66
2022/02/01 09:07:23;;;;;;;9.63;3.20;;;;;;;3.84;65.03;99403.66;2620851;54;20050;-66
2022/02/01 09:09:54;;;;;;;10.57;2.78;;;;;;;3.92;65.31;99416.06;2620658;54;20035;-67
2022/02/01 09:12:24;;;;;;;9.32;2.50;;;;;;;3.87;64.40;99415.59;2621096;54;20534;-65
2022/02/01 09:14:54;;;;;;;8.23;2.55;;;;;;;3.87;63.98;99405.97;2620948;54;20034;-65
2022/02/01 09:17:44;;;;;;;10.85;2.75;;;;;;;3.81;63.31;99400.47;2619270;54;20030;-67
2022/02/01 09:20:17;;;;;;;8.55;2.13;;;;;;;3.81;63.76;99397.84;2619882;54;20026;-65
2022/02/01 09:22:46;;;;;;;11.15;2.70;;;;;;;3.85;63.33;99386.97;2619185;54;20073;-66
2022/02/01 09:25:17;;;;;;;13.20;2.63;;;;;;;3.93;63.34;99384.50;2618518;54;20038;-66
2022/02/01 09:27:48;;;;;;;11.18;2.65;;;;;;;4.01;62.83;99380.41;2618642;54;20074;-65
2022/02/01 09:30:20;;;;;;;9.50;1.95;;;;;;;4.04;62.27;99380.09;2619331;39;20446;-66
2022/02/01 09:32:50;;;;;;;11.07;2.45;;;;;;;4.08;62.10;99379.72;2619813;39;20539;-66
2022/02/01 09:35:23;;;;;;;10.05;2.75;;;;;;;4.09;62.08;99381.38;2619054;54;20074;-65
2022/02/01 09:37:52;;;;;;;11.40;2.90;;;;;;;4.10;61.88;99390.88;2618847;54;20023;-67
2022/02/01 09:40:43;;;;;;;17.10;4.32;;;;;;;4.12;62.00;99383.72;2620300;39;20403;-64
2022/02/01 09:43:14;;;;;;;8.25;2.92;;;;;;;4.08;62.11;99391.94;2619343;54;20026;-64
2022/02/01 09:45:43;;;;;;;8.23;2.53;;;;;;;4.11;62.04;99382.03;2619347;54;20033;-65
2022/02/01 09:48:34;;;;;;;8.35;2.70;;;;;;;4.19;62.23;99378.75;2619121;54;20045;-65
2022/02/01 09:51:08;;;;;;;17.92;3.35;;;;;;;4.22;62.28;99381.91;2618950;39;20673;-64
2022/02/01 09:53:37;;;;;;;16.27;3.47;;;;;;;4.30;62.61;99362.09;2618631;54;20534;-67
2022/02/01 09:56:08;;;;;;;10.57;2.78;;;;;;;4.19;62.51;99368.28;2618897;54;20043;-66
2022/02/01 09:58:40;;;;;;;12.05;3.00;;;;;;;4.15;63.18;99372.13;2619017;54;20034;-66
2022/02/01 10:01:17;;;;;;;12.25;3.55;;;;;;;4.16;63.57;99368.53;2629682;39;20868;-66
2022/02/01 10:03:48;;;;;;;18.17;3.92;;;;;;;4.14;63.68;99368.69;2626763;47;20023;-66
2022/02/01 10:06:41;;;;;;;17.75;3.65;;;;;;;4.12;63.76;99368.03;2626949;54;20034;-66
2022/02/01 10:09:31;;;;;;;14.88;3.72;;;;;;;4.14;64.27;99360.84;2627855;54;20082;-66
2022/02/01 10:12:01;;;;;;;13.27;2.92;;;;;;;4.07;64.07;99364.13;2627224;54;20058;-67
2022/02/01 10:14:48;;;;;;;11.95;3.20;;;;;;;4.11;64.66;99355.88;2627616;54;20030;-66
2022/02/01 10:17:27;;;;;;;14.02;3.58;;;;;;;4.14;64.68;99355.59;2627574;54;20041;-67
2022/02/01 10:19:56;;;;;;;7.80;3.17;;;;;;;4.16;64.70;99366.78;2627622;54;20034;-65
2022/02/01 10:22:37;;;;;;;7.15;3.17;;;;;;;4.23;65.07;99356.56;2627134;54;20023;-66
2022/02/01 10:25:21;;;;;;;12.70;3.83;;;;;;;4.31;65.01;99342.78;2626545;54;20035;-67
2022/02/01 10:27:59;;;;;;;13.30;3.22;;;;;;;4.36;65.03;99322.25;2625782;54;20022;-65
2022/02/01 10:30:52;;;;;;;10.70;3.00;;;;;;;4.28;64.96;99317.72;2625810;54;20038;-65
2022/02/01 10:36:12;;;;;;;13.68;3.10;;;;;;;4.23;66.09;99309.47;2625354;54;20034;-66
2022/02/01 10:38:44;;;;;;;15.70;3.25;;;;;;;4.25;66.43;99304.94;2625909;54;20060;-65
2022/02/01 10:41:15;;;;;;;13.90;3.40;;;;;;;4.30;66.59;99297.47;2625735;54;20154;-66
2022/02/01 10:43:45;;;;;;;16.25;3.28;;;;;;;4.37;66.74;99292.50;2624807;54;20038;-65
2022/02/01 10:46:18;;;;;;;13.82;3.28;;;;;;;4.31;66.86;99282.59;2624433;54;20026;-65
2022/02/01 10:48:49;;;;;;;12.50;3.67;;;;;;;4.32;67.17;99273.75;2624383;54;20035;-66
2022/02/01 10:51:20;;;;;;;15.15;4.40;;;;;;;4.36;67.27;99262.88;2625045;54;20038;-65
2022/02/01 10:53:55;;;;;;;8.77;3.70;;;;;;;4.34;67.73;99264.81;2626302;54;20046;-67
2022/02/01 10:56:26;;;;;;;9.68;4.28;;;;;;;4.23;67.60;99257.13;2627396;54;20030;-66
2022/02/01 10:58:56;;;;;;;20.65;10.63;;;;;;;4.27;68.40;99258.47;2626596;54;20034;-67
2022/02/01 11:01:30;;;;;;;14.13;6.63;;;;;;;4.20;68.29;99239.06;2626609;54;20560;-65
2022/02/01 11:04:04;;;;;;;7.88;4.40;;;;;;;4.18;69.38;99236.59;2625726;54;20035;-66
2022/02/01 11:06:36;;;;;;;7.43;3.60;;;;;;;4.10;69.59;99226.03;2627841;31;20479;-67
2022/02/01 11:09:09;;;;;;;7.47;3.10;;;;;;;4.01;69.93;99207.75;2625604;54;20038;-65
2022/02/01 11:11:38;;;;;;;6.97;2.90;;;;;;;3.92;70.21;99196.34;2624912;39;20434;-65
2022/02/01 11:14:08;;;;;;;3.72;2.20;;;;;;;3.87;70.91;99188.06;2624775;54;20042;-66
2022/02/01 11:16:38;;;;;;;7.65;2.88;;;;;;;3.97;70.96;99191.50;2619941;47;20577;-73
2022/02/01 11:19:22;;;;;;;6.50;2.72;;;;;;;4.01;71.07;99194.66;2619902;54;20556;-73
2022/02/01 11:21:56;;;;;;;8.73;2.30;;;;;;;4.05;70.91;99167.25;2619411;54;20917;-72
2022/02/01 11:24:35;;;;;;;4.25;2.13;;;;;;;4.05;71.01;99182.94;2620210;39;20098;-73
2022/02/01 11:27:17;;;;;;;6.38;1.90;;;;;;;4.03;71.40;99171.78;2620610;39;20459;-73
2022/02/01 11:32:38;;;;;;;5.63;2.72;;;;;;;4.07;71.75;99160.06;2624109;54;20601;-73
2022/02/01 11:35:16;;;;;;;3.53;2.00;;;;;;;4.01;71.91;99153.63;2625039;47;20043;-72
2022/02/01 11:38:09;;;;;;;3.25;1.92;;;;;;;4.01;72.23;99158.03;2624816;54;20046;-72
2022/02/01 11:40:46;;;;;;;3.85;1.73;;;;;;;3.95;72.79;99149.75;2620179;47;20022;-75
2022/02/01 11:43:37;;;;;;;3.67;1.73;;;;;;;3.93;72.39;99129.97;2619574;54;20034;-74
2022/02/01 11:46:09;;;;;;;6.78;3.33;;;;;;;3.96;72.76;99119.22;2617974;47;20055;-74
2022/02/01 11:48:41;;;;;;;5.25;1.88;;;;;;;3.95;72.92;99118.38;2618020;54;20041;-72
2022/02/01 11:51:12;;;;;;;4.07;1.90;;;;;;;3.92;73.49;99115.25;2619149;54;20065;-73
2022/02/01 11:53:43;;;;;;;6.13;2.58;;;;;;;3.82;73.51;99107.41;2619100;46;20038;-73
2022/02/01 11:56:17;;;;;;;5.63;2.08;;;;;;;3.84;73.46;99108.09;2618284;47;20034;-74
2022/02/01 11:58:49;;;;;;;8.73;2.33;;;;;;;3.91;74.23;99090.84;2618602;54;20039;-71
2022/02/01 12:01:28;;;;;;;11.15;4.25;;;;;;;3.91;73.53;99088.25;2618248;54;20134;-73
2022/02/01 12:04:07;;;;;;;4.97;2.20;;;;;;;3.84;73.96;99068.06;2617920;54;20034;-73
2022/02/01 12:06:45;;;;;;;4.25;1.90;;;;;;;3.83;74.21;99069.00;2618851;39;20438;-73
2022/02/01 12:09:20;;;;;;;6.20;2.58;;;;;;;3.79;74.51;99076.31;2618278;54;20050;-71
2022/02/01 12:11:57;;;;;;;5.07;2.25;;;;;;;3.85;74.82;99062.66;2618386;54;20026;-73
2022/02/01 12:14:27;;;;;;;10.52;5.20;;;;;;;3.86;74.69;99072.16;2619540;54;20562;-73
2022/02/01 12:16:58;;;;;;;4.90;3.05;;;;;;;3.87;75.00;99057.28;2619666;39;20445;-72
2022/02/01 12:19:34;;;;;;;3.47;2.38;;;;;;;3.80;75.12;99062.28;2618941;47;20046;-72
2022/02/01 12:22:32;;;;;;;4.15;2.00;;;;;;;3.71;75.17;99063.97;2618271;54;20048;-72
2022/02/01 12:25:05;;;;;;;4.28;2.40;;;;;;;3.64;74.99;99054.22;2618396;54;20030;-70
2022/02/01 12:27:40;;;;;;;3.10;2.20;;;;;;;3.63;75.11;99061.25;2618444;54;20038;-73
2022/02/01 12:30:13;;;;;;;4.65;2.10;;;;;;;3.54;75.03;99056.03;2618387;54;20078;-73
2022/02/01 12:32:51;;;;;;;2.60;1.83;;;;;;;3.50;75.43;99046.81;2619982;54;20030;-72
2022/02/01 12:35:32;;;;;;;3.53;2.10;;;;;;;3.52;75.53;99030.03;2619292;47;20034;-72
2022/02/01 12:38:15;;;;;;;5.40;2.50;;;;;;;3.59;75.90;99038.13;2620339;47;20042;-73
2022/02/01 12:40:45;;;;;;;3.30;2.33;;;;;;;3.56;75.85;99038.41;2620528;46;20029;-72
2022/02/01 12:43:23;;;;;;;2.42;2.10;;;;;;;3.55;75.80;99055.91;2619093;47;20034;-71
2022/02/01 12:46:16;;;;;;;2.42;2.05;;;;;;;3.52;75.90;99026.59;2620736;39;20459;-72
2022/02/01 12:48:51;;;;;;;2.90;2.10;;;;;;;3.44;76.17;99015.06;2619661;54;20043;-71
2022/02/01 12:51:21;;;;;;;3.50;2.25;;;;;;;3.39;76.65;99011.22;2619466;54;20038;-72
2022/02/01 12:53:53;;;;;;;2.38;1.90;;;;;;;3.44;77.11;99001.16;2619806;54;20514;-71
2022/02/01 12:56:25;;;;;;;4.13;2.42;;;;;;;3.39;77.45;99008.63;2619704;54;20078;-72
2022/02/01 12:58:59;;;;;;;3.55;3.25;;;;;;;3.36;77.13;99001.06;2619708;54;20035;-72
2022/02/01 13:01:34;;;;;;;3.38;2.33;;;;;;;3.32;77.71;98995.28;2618823;47;20023;-71
2022/02/01 13:04:04;;;;;;;5.55;2.50;;;;;;;3.35;78.12;98974.09;2623110;54;20561;-70
2022/02/01 13:06:39;;;;;;;2.30;2.10;;;;;;;3.36;77.99;98973.13;2625687;54;20058;-71
2022/02/01 13:14:46;;;;;;;2.30;2.10;;;;;;;3.37;78.14;98974.75;2627605;39;20425;-71
2022/02/01 13:17:37;;;;;;;4.70;2.40;;;;;;;3.46;78.23;98962.63;2624863;47;20043;-71
2022/02/01 13:20:17;;;;;;;2.78;1.67;;;;;;;3.35;78.64;98945.34;2624710;54;20026;-71
2022/02/01 13:22:55;;;;;;;3.78;2.00;;;;;;;3.39;78.81;98935.44;2624874;54;20042;-72
2022/02/01 13:25:33;;;;;;;4.55;1.90;;;;;;;3.35;78.92;98944.53;2621433;39;20442;-71
2022/02/01 13:28:06;;;;;;;3.97;1.70;;;;;;;3.39;79.23;98940.66;2619073;54;20034;-71
2022/02/01 13:30:39;;;;;;;2.38;2.17;;;;;;;3.40;78.62;98924.03;2619245;54;20046;-70
2022/02/01 13:33:12;;;;;;;3.47;2.20;;;;;;;3.33;78.81;98921.16;2618942;54;20049;-71
2022/02/01 13:35:48;;;;;;;2.25;1.60;;;;;;;3.36;78.61;98909.59;2618459;54;20026;-70
2022/02/01 13:38:21;;;;;;;2.03;1.63;;;;;;;3.41;78.44;98921.25;2619412;54;20042;-71
2022/02/01 13:40:53;;;;;;;1.63;1.33;;;;;;;3.43;78.60;98913.28;2618214;54;20041;-71
2022/02/01 13:43:26;;;;;;;2.28;1.85;;;;;;;3.48;78.42;98905.81;2619004;54;20030;-72
2022/02/01 13:46:01;;;;;;;2.90;1.70;;;;;;;3.50;78.76;98911.72;2618818;54;20034;-71
2022/02/01 13:48:31;;;;;;;3.00;1.70;;;;;;;3.50;79.03;98916.13;2618782;39;20426;-71
2022/02/01 13:51:08;;;;;;;3.45;1.95;;;;;;;3.52;79.26;98906.38;2618858;54;20039;-71
2022/02/01 13:53:38;;;;;;;3.05;1.85;;;;;;;3.58;78.78;98887.47;2619173;39;20446;-71
2022/02/01 13:56:09;;;;;;;2.17;1.40;;;;;;;3.53;79.09;98887.91;2618196;54;20059;-70
2022/02/01 13:58:41;;;;;;;1.85;1.60;;;;;;;3.55;79.24;98890.38;2618765;54;20577;-72
2022/02/01 14:01:21;;;;;;;1.17;1.02;;;;;;;3.52;78.81;98896.72;2619474;39;20426;-71
2022/02/01 14:04:14;;;;;;;2.20;1.70;;;;;;;3.54;79.08;98896.56;2618307;54;20027;-71
2022/02/01 14:06:50;;;;;;;4.03;1.80;;;;;;;3.51;79.18;98896.84;2618165;54;20035;-71
2022/02/01 14:09:34;;;;;;;2.53;1.30;;;;;;;3.52;79.24;98888.06;2618313;54;20569;-71
2022/02/01 14:12:30;;;;;;;2.03;1.48;;;;;;;3.51;79.34;98881.16;2618639;54;20038;-73
2022/02/01 14:26:41;;;;;;;0.85;0.85;;;;;;;3.60;78.71;98841.94;2618113;54;20034;-72
2022/02/01 14:32:03;;;;;;;1.20;1.10;;;;;;;3.55;79.06;98840.69;2618290;47;20035;-72
2022/02/01 14:34:49;;;;;;;1.17;0.90;;;;;;;3.51;78.95;98853.28;2618698;54;20038;-71
2022/02/01 14:37:24;;;;;;;1.60;0.90;;;;;;;3.55;79.07;98844.16;2618884;39;20145;-71
2022/02/01 14:45:19;;;;;;;1.55;0.98;;;;;;;3.44;79.42;98833.91;2618214;47;20027;-71
2022/02/01 14:47:49;;;;;;;1.33;1.10;;;;;;;3.46;79.53;98832.78;2618741;54;20057;-72
2022/02/01 14:50:21;;;;;;;1.60;1.20;;;;;;;3.50;79.63;98828.06;2618935;54;20038;-71
2022/02/01 14:52:51;;;;;;;1.20;1.10;;;;;;;3.56;79.76;98834.53;2619254;39;20460;-71
2022/02/01 14:55:23;;;;;;;1.30;1.20;;;;;;;3.54;79.64;98813.75;2619094;54;20139;-72
2022/02/01 15:06:41;;;;;;;1.40;1.30;;;;;;;3.66;79.77;98793.44;2627537;54;20042;-71
2022/02/01 15:11:58;;;;;;;1.48;1.20;;;;;;;3.58;80.13;98783.72;2626871;54;20038;-71
2022/02/01 15:14:28;;;;;;;1.58;1.23;;;;;;;3.58;80.17;98782.91;2626828;47;20045;-73
2022/02/01 15:16:58;;;;;;;1.27;1.17;;;;;;;3.59;80.05;98785.41;2625888;54;20105;-71
2022/02/01 15:19:28;;;;;;;1.50;1.00;;;;;;;3.57;80.22;98776.88;2625126;54;20111;-72
2022/02/01 15:22:00;;;;;;;1.45;1.25;;;;;;;3.54;80.50;98795.44;2625410;54;20050;-72
2022/02/01 15:24:50;;;;;;;2.28;1.48;;;;;;;3.59;80.49;98777.56;2624579;54;20059;-72
2022/02/01 15:27:20;;;;;;;0.82;0.82;;;;;;;3.60;80.72;98780.97;2622167;54;20031;-72
2022/02/01 15:29:50;;;;;;;1.40;1.30;;;;;;;3.59;80.58;98781.94;2620373;54;20057;-72
2022/02/01 15:32:20;;;;;;;2.13;1.23;;;;;;;3.63;80.81;98778.91;2620529;54;20038;-73
2022/02/01 15:35:04;;;;;;;6.27;3.97;;;;;;;3.67;81.29;98788.09;2622571;31;20542;-73
2022/02/01 15:37:37;;;;;;;1.80;1.40;;;;;;;3.76;81.35;98757.59;2619869;54;20033;-71
2022/02/01 15:54:40;;;;;;;0.98;0.90;;;;;;;3.68;81.44;98762.75;2626996;47;20034;-71
2022/02/01 15:57:19;;;;;;;1.65;1.15;;;;;;;3.67;81.74;98764.56;2627243;54;20049;-72
2022/02/01 15:59:48;;;;;;;1.40;1.30;;;;;;;3.71;82.20;98746.75;2629557;39;20735;-72
2022/02/01 16:02:19;;;;;;;2.38;1.42;;;;;;;3.74;82.34;98746.47;2625809;47;20031;-73
2022/02/01 16:04:55;;;;;;;1.52;1.33;;;;;;;3.76;82.31;98736.69;2626199;54;20027;-70
2022/02/01 16:07:26;;;;;;;1.85;1.73;;;;;;;3.79;82.48;98725.91;2626381;46;20058;-71
2022/02/01 16:10:26;;;;;;;0.88;0.88;;;;;;;3.78;82.52;98726.06;2626180;47;20031;-72
2022/02/01 16:13:03;;;;;;;0.90;0.90;;;;;;;3.76;82.29;98713.16;2627103;54;20045;-71
2022/02/01 16:15:32;;;;;;;2.35;2.15;;;;;;;3.79;82.80;98740.78;2619437;47;20026;-71
2022/02/01 16:18:02;;;;;;;1.55;1.45;;;;;;;3.80;83.00;98743.25;2619788;54;20026;-72
2022/02/01 16:20:32;;;;;;;1.65;1.38;;;;;;;3.77;82.89;98740.13;2621130;39;20412;-73
2022/02/01 16:23:01;;;;;;;1.77;1.38;;;;;;;3.77;83.49;98745.34;2620458;54;20034;-70
2022/02/01 16:25:34;;;;;;;3.83;1.77;;;;;;;3.85;83.49;98750.66;2619405;54;20044;-69
2022/02/01 16:28:03;;;;;;;2.83;2.60;;;;;;;3.85;83.66;98748.03;2618851;54;20038;-70
2022/02/01 16:30:36;;;;;;;2.80;2.25;;;;;;;3.89;83.68;98742.34;2619312;54;20050;-71
2022/02/01 16:33:06;;;;;;;2.05;1.83;;;;;;;3.90;83.70;98740.53;2619192;54;20038;-68
2022/02/01 16:35:36;;;;;;;2.38;1.83;;;;;;;3.88;84.01;98725.03;2619122;47;20034;-69
2022/02/01 16:38:06;;;;;;;2.85;1.60;;;;;;;3.87;83.60;98723.34;2619061;54;20047;-69
2022/02/01 16:40:59;;;;;;;1.70;1.60;;;;;;;3.87;84.33;98743.47;2618963;47;20046;-69
2022/02/01 16:43:34;;;;;;;1.77;1.40;;;;;;;3.89;83.81;98749.38;2618891;54;20038;-69
2022/02/01 16:46:04;;;;;;;1.83;1.58;;;;;;;3.88;84.48;98732.88;2618135;47;20031;-68
2022/02/01 16:48:37;;;;;;;1.60;1.50;;;;;;;3.90;84.28;98736.13;2618644;54;20030;-67
2022/02/01 16:51:11;;;;;;;1.80;1.50;;;;;;;3.86;84.72;98732.19;2619084;39;20430;-68
2022/02/01 16:53:44;;;;;;;4.93;1.55;;;;;;;3.88;84.42;98726.81;2617819;47;20046;-67
2022/02/01 16:56:24;;;;;;;2.35;2.15;;;;;;;3.93;84.55;98714.09;2617559;48;20034;-69
2022/02/01 16:59:09;;;;;;;1.88;1.60;;;;;;;3.96;84.62;98721.66;2619062;39;20432;-70
2022/02/01 17:01:39;;;;;;;4.65;2.00;;;;;;;4.02;84.80;98723.63;2617954;47;20139;-68
2022/02/01 17:04:10;;;;;;;4.15;3.75;;;;;;;4.08;84.82;98724.81;2618240;54;20078;-69
2022/02/01 17:06:40;;;;;;;2.28;2.08;;;;;;;4.07;84.49;98736.25;2618171;54;20034;-67
2022/02/01 17:09:12;;;;;;;2.50;1.80;;;;;;;4.07;84.72;98749.34;2618620;54;20599;-67
2022/02/01 17:12:05;;;;;;;9.95;9.00;;;;;;;4.08;84.77;98737.88;2619105;54;20537;-67
2022/02/01 17:14:58;;;;;;;4.75;4.20;;;;;;;4.16;84.73;98722.25;2621838;46;20093;-69
2022/02/01 17:17:44;;;;;;;2.22;2.03;;;;;;;4.22;84.57;98724.25;2617946;54;20026;-64
2022/02/01 17:22:56;;;;;;;3.85;3.28;;;;;;;4.27;84.91;98693.22;2619122;39;20180;-64
2022/02/01 17:25:26;;;;;;;5.57;4.20;;;;;;;4.30;84.50;98690.28;2618392;54;20031;-63
2022/02/01 17:27:59;;;;;;;2.17;1.98;;;;;;;4.31;85.03;98681.47;2618215;47;20038;-64
2022/02/01 17:30:29;;;;;;;3.28;2.00;;;;;;;4.31;85.12;98691.94;2618745;54;20038;-65
2022/02/01 17:32:58;;;;;;;3.17;2.88;;;;;;;4.35;85.18;98697.69;2618660;54;20094;-64
2022/02/01 17:35:28;;;;;;;5.30;2.97;;;;;;;4.40;85.06;98698.03;2618513;54;20581;-64
2022/02/01 17:37:57;;;;;;;3.33;2.45;;;;;;;4.46;84.98;98686.94;2618381;54;20057;-64
2022/02/01 17:40:29;;;;;;;4.57;3.53;;;;;;;4.48;85.06;98677.13;2618053;54;20873;-65
2022/02/01 17:43:02;;;;;;;3.67;2.67;;;;;;;4.51;85.29;98678.63;2617927;54;20030;-65
2022/02/01 17:45:31;;;;;;;20.35;9.55;;;;;;;4.56;85.36;98687.63;2618549;54;20818;-65
2022/02/01 17:48:01;;;;;;;21.80;9.43;;;;;;;4.66;85.33;98688.34;2617591;47;20029;-65
2022/02/01 17:50:45;;;;;;;26.30;11.43;;;;;;;4.74;85.37;98666.63;2618674;54;20081;-63
2022/02/01 17:53:23;;;;;;;23.60;13.30;;;;;;;4.81;85.00;98670.22;2618838;54;20030;-64
2022/02/01 17:55:55;;;;;;;18.20;11.73;;;;;;;4.85;85.06;98684.63;2618216;54;20542;-64
2022/02/01 17:58:27;;;;;;;3.13;2.92;;;;;;;4.91;84.95;98668.28;2618643;47;20564;-63
2022/02/01 18:00:57;;;;;;;3.90;2.92;;;;;;;4.97;85.72;98664.19;2619791;54;20041;-66
2022/02/01 18:03:27;;;;;;;2.70;2.50;;;;;;;5.07;85.75;98664.09;2618864;54;20045;-63
2022/02/01 18:05:56;;;;;;;2.47;2.28;;;;;;;5.14;85.90;98665.91;2619305;54;20042;-64
2022/02/01 18:08:26;;;;;;;2.65;2.13;;;;;;;5.19;85.79;98679.34;2619361;54;20084;-66
2022/02/01 18:10:56;;;;;;;3.33;2.58;;;;;;;5.28;85.71;98690.66;2619676;54;20034;-64
2022/02/01 18:13:36;;;;;;;3.20;2.55;;;;;;;5.28;85.88;98698.50;2618311;47;20050;-64
2022/02/01 18:16:08;;;;;;;3.53;3.17;;;;;;;5.34;86.06;98689.16;2618195;47;20039;-65
2022/02/01 18:18:41;;;;;;;4.00;3.60;;;;;;;5.42;85.93;98694.41;2618439;54;20038;-65
2022/02/01 18:21:13;;;;;;;3.95;3.40;;;;;;;5.44;85.52;98666.25;2617959;47;20054;-64
2022/02/01 18:23:44;;;;;;;4.70;3.15;;;;;;;5.50;85.93;98683.13;2618000;54;20130;-66
2022/02/01 18:26:15;;;;;;;3.25;3.03;;;;;;;5.53;85.64;98693.28;2618564;39;20127;-66
2022/02/01 18:28:47;;;;;;;3.88;3.47;;;;;;;5.54;86.38;98693.13;2618611;54;20566;-65
2022/02/01 18:31:17;;;;;;;6.57;5.10;;;;;;;5.59;86.49;98690.84;2619360;46;20058;-65
2022/02/01 18:33:47;;;;;;;4.55;4.10;;;;;;;5.61;86.52;98699.38;2622733;54;20050;-64